Time;durP1;ratioP1;P1;durP2;ratioP2;P2;SDS_P1;SDS_P2;PMS_P1;PMS_P2;Temp;Humidity;BMP_temperature;BMP_pressure;BME280_temperature;BME280_humidity;BME280_pressure;Samples;Min_cycle;Max_cycle;Signal;HPM_P1;HPM_P2
2022/04/16 00:00:52;;;;;;;54.67;27.15;;;11.10;99.90;;;;;;5096346;28;20181;-52
2022/04/16 00:03:21;;;;;;;52.83;25.88;;;11.00;99.90;;;;;;5096630;28;20106;-52
2022/04/16 00:05:50;;;;;;;57.65;24.88;;;10.90;99.90;;;;;;5096600;28;20028;-52
2022/04/16 00:08:16;;;;;;;53.33;26.42;;;10.80;99.90;;;;;;5096469;28;20572;-52
2022/04/16 00:10:42;;;;;;;54.33;26.23;;;10.70;99.90;;;;;;5096413;28;20036;-52
2022/04/16 00:13:08;;;;;;;54.72;27.02;;;10.70;99.90;;;;;;5096158;28;20032;-52
2022/04/16 00:15:34;;;;;;;50.85;26.02;;;10.70;99.90;;;;;;5096330;28;20089;-52
2022/04/16 00:18:00;;;;;;;53.42;25.65;;;10.60;99.90;;;;;;5096231;28;20125;-53
2022/04/16 00:20:27;;;;;;;54.83;25.83;;;10.50;99.90;;;;;;5096240;28;20039;-52
2022/04/16 00:22:53;;;;;;;50.85;26.15;;;10.50;99.90;;;;;;5096058;28;20056;-52
2022/04/16 00:25:21;;;;;;;49.45;25.48;;;10.40;99.90;;;;;;5096352;28;20039;-52
2022/04/16 00:27:47;;;;;;;58.72;27.83;;;10.30;99.90;;;;;;5096234;28;20028;-52
2022/04/16 00:30:13;;;;;;;53.03;27.83;;;10.30;99.90;;;;;;5096090;28;20023;-52
2022/04/16 00:32:42;;;;;;;57.47;26.60;;;10.30;99.90;;;;;;5096144;28;20032;-52
2022/04/16 00:35:09;;;;;;;51.00;24.98;;;10.20;99.90;;;;;;5096022;28;20052;-52
2022/04/16 00:37:35;;;;;;;55.65;25.55;;;10.20;99.90;;;;;;5096093;28;20020;-52
2022/04/16 00:40:01;;;;;;;58.45;27.95;;;10.10;99.90;;;;;;5095859;28;20032;-52
2022/04/16 00:42:43;;;;;;;57.75;29.45;;;10.10;99.90;;;;;;5095789;28;20012;-52
2022/04/16 00:45:11;;;;;;;61.95;29.42;;;10.00;99.90;;;;;;5095918;28;20056;-52
2022/04/16 00:47:37;;;;;;;60.42;31.52;;;10.10;99.90;;;;;;5095832;28;20105;-51
2022/04/16 00:50:10;;;;;;;64.07;32.10;;;10.00;99.90;;;;;;5095667;28;20390;-52
2022/04/16 00:52:38;;;;;;;68.22;32.13;;;10.10;99.90;;;;;;5095843;28;20032;-51
2022/04/16 00:55:08;;;;;;;82.18;33.67;;;10.10;99.90;;;;;;5095655;28;20107;-52
2022/04/16 00:57:39;;;;;;;74.28;34.20;;;10.10;99.90;;;;;;5095526;28;20036;-52
2022/04/16 01:00:07;;;;;;;67.57;32.75;;;10.10;99.90;;;;;;5095601;28;20026;-52
2022/04/16 01:02:37;;;;;;;71.55;35.67;;;10.10;99.90;;;;;;5095558;28;20024;-52
2022/04/16 01:05:05;;;;;;;70.68;33.15;;;10.00;99.90;;;;;;5095298;28;20020;-52
2022/04/16 01:07:31;;;;;;;77.38;36.92;;;10.00;99.90;;;;;;5094736;28;20034;-52
2022/04/16 01:09:57;;;;;;;85.75;37.80;;;10.00;99.90;;;;;;5095269;28;20059;-52
2022/04/16 01:12:23;;;;;;;84.05;36.45;;;10.00;99.90;;;;;;5095115;28;20039;-52
2022/04/16 01:14:50;;;;;;;76.63;35.22;;;10.00;99.90;;;;;;5095337;28;20489;-52
2022/04/16 01:17:17;;;;;;;83.30;35.20;;;10.00;99.90;;;;;;5094842;28;20040;-52
2022/04/16 01:19:44;;;;;;;82.35;35.65;;;10.00;99.90;;;;;;5094903;28;20115;-52
2022/04/16 01:22:14;;;;;;;75.88;34.53;;;10.10;99.90;;;;;;5095224;28;20034;-52
2022/04/16 01:24:46;;;;;;;84.05;35.17;;;10.10;99.90;;;;;;5095231;28;20173;-52
2022/04/16 01:27:11;;;;;;;77.35;33.15;;;10.10;99.90;;;;;;5095026;28;20062;-52
2022/04/16 01:29:37;;;;;;;74.03;32.50;;;10.10;99.90;;;;;;5095366;28;20114;-52
2022/04/16 01:32:04;;;;;;;75.03;31.65;;;10.20;99.90;;;;;;5095141;28;20085;-52
2022/04/16 01:34:30;;;;;;;70.65;29.55;;;10.20;99.90;;;;;;5094992;28;20030;-52
2022/04/16 01:36:59;;;;;;;57.13;25.80;;;10.20;99.90;;;;;;5094782;28;20028;-52
2022/04/16 01:39:25;;;;;;;56.53;24.85;;;10.10;99.90;;;;;;5094875;28;20560;-53
2022/04/16 01:41:51;;;;;;;64.38;28.35;;;10.10;99.90;;;;;;5094881;28;20051;-52
2022/04/16 01:44:17;;;;;;;75.18;31.60;;;10.10;99.90;;;;;;5094835;28;20035;-52
2022/04/16 01:46:43;;;;;;;67.03;30.50;;;10.10;99.90;;;;;;5094633;28;20027;-52
2022/04/16 01:49:10;;;;;;;76.35;32.38;;;10.10;99.90;;;;;;5094603;28;20032;-52
2022/04/16 01:51:35;;;;;;;62.83;30.35;;;10.20;99.90;;;;;;5094816;28;20035;-52
2022/04/16 01:54:01;;;;;;;66.75;30.02;;;10.10;99.90;;;;;;5094669;28;20032;-52
2022/04/16 01:56:27;;;;;;;46.75;24.27;;;10.10;99.90;;;;;;5094572;28;20094;-52
2022/04/16 01:58:54;;;;;;;66.18;30.15;;;10.10;99.90;;;;;;5094501;28;20117;-52
2022/04/16 02:01:19;;;;;;;65.43;29.83;;;10.00;99.90;;;;;;5094514;28;20028;-52
2022/04/16 02:03:46;;;;;;;63.97;29.02;;;9.90;99.90;;;;;;5094624;28;20035;-52
2022/04/16 02:06:12;;;;;;;59.25;28.38;;;9.90;99.90;;;;;;5094231;28;20050;-52
2022/04/16 02:08:38;;;;;;;62.97;29.90;;;9.90;99.90;;;;;;5094492;28;20374;-52
2022/04/16 02:11:04;;;;;;;73.53;32.92;;;9.90;99.90;;;;;;5094466;28;20523;-52
2022/04/16 02:13:31;;;;;;;139.52;52.22;;;9.80;99.90;;;;;;5094327;28;20028;-52
2022/04/16 02:15:56;;;;;;;165.75;60.72;;;9.80;99.90;;;;;;5094401;28;20048;-52
2022/04/16 02:18:23;;;;;;;119.45;45.50;;;9.80;99.90;;;;;;5095334;28;20067;-52
2022/04/16 02:20:50;;;;;;;74.90;33.55;;;9.70;99.90;;;;;;5098564;28;20487;-52
2022/04/16 02:23:16;;;;;;;71.53;31.25;;;9.70;99.90;;;;;;5098493;28;20081;-52
2022/04/16 02:25:43;;;;;;;59.10;27.52;;;9.70;99.90;;;;;;5098402;28;20031;-52
2022/04/16 02:28:10;;;;;;;57.67;28.17;;;9.60;99.90;;;;;;5098487;28;20077;-52
2022/04/16 02:30:37;;;;;;;55.28;27.92;;;9.60;99.90;;;;;;5098441;28;20028;-52
2022/04/16 02:33:06;;;;;;;54.22;26.83;;;9.60;99.90;;;;;;5098552;28;20068;-52
2022/04/16 02:35:32;;;;;;;63.25;27.95;;;9.60;99.90;;;;;;5098268;28;20047;-52
2022/04/16 02:37:58;;;;;;;57.40;26.45;;;9.70;99.90;;;;;;5098458;28;20031;-52
2022/04/16 02:40:24;;;;;;;44.35;23.63;;;9.70;99.90;;;;;;5098193;28;20028;-52
2022/04/16 02:42:50;;;;;;;76.55;34.60;;;9.70;99.90;;;;;;5098181;28;20081;-52
2022/04/16 02:48:02;;;;;;;57.95;27.42;;;9.70;99.90;;;;;;5098057;28;20063;-52
2022/04/16 02:50:28;;;;;;;61.58;29.27;;;9.70;99.90;;;;;;5097989;28;20087;-52
2022/04/16 02:52:58;;;;;;;66.55;30.35;;;9.70;99.90;;;;;;5097920;28;20466;-52
2022/04/16 02:55:25;;;;;;;61.40;27.83;;;9.70;99.90;;;;;;5097951;28;20433;-52
2022/04/16 02:57:51;;;;;;;61.03;27.55;;;9.70;99.90;;;;;;5097839;28;20077;-52
2022/04/16 03:00:21;;;;;;;62.92;27.33;;;9.70;99.90;;;;;;5097671;28;20059;-52
2022/04/16 03:02:51;;;;;;;52.13;25.65;;;9.70;99.90;;;;;;5097856;28;20427;-52
2022/04/16 03:05:17;;;;;;;54.03;26.80;;;9.70;99.90;;;;;;5097968;28;20048;-52
2022/04/16 03:07:43;;;;;;;53.03;24.98;;;9.80;99.90;;;;;;5097612;28;20465;-52
2022/04/16 03:10:09;;;;;;;45.63;23.00;;;9.80;99.90;;;;;;5097591;28;20046;-52
2022/04/16 03:12:51;;;;;;;49.60;22.45;;;9.80;99.90;;;;;;5097588;28;20024;-52
2022/04/16 03:18:03;;;;;;;48.85;23.42;;;9.90;99.90;;;;;;5097422;28;20048;-52
2022/04/16 03:20:30;;;;;;;48.55;21.27;;;9.90;99.90;;;;;;5097371;28;20378;-52
2022/04/16 03:22:57;;;;;;;42.05;20.30;;;9.80;99.90;;;;;;5097448;28;20052;-52
2022/04/16 03:25:24;;;;;;;37.35;18.88;;;9.90;99.90;;;;;;5097278;28;20469;-52
2022/04/16 03:27:50;;;;;;;43.58;18.98;;;9.90;99.90;;;;;;5097278;28;20036;-52
2022/04/16 03:30:16;;;;;;;41.88;20.80;;;10.00;99.90;;;;;;5096752;28;20023;-52
2022/04/16 03:32:45;;;;;;;46.22;20.98;;;10.00;99.90;;;;;;5097224;28;20040;-52
2022/04/16 03:35:11;;;;;;;45.53;21.10;;;10.00;99.90;;;;;;5096982;28;20032;-52
2022/04/16 03:37:37;;;;;;;46.67;22.42;;;10.10;99.90;;;;;;5097190;28;20042;-52
2022/04/16 03:40:05;;;;;;;41.83;22.45;;;10.10;99.90;;;;;;5096983;28;20032;-52
2022/04/16 03:42:34;;;;;;;40.78;22.15;;;10.10;99.90;;;;;;5097214;28;20024;-52
2022/04/16 03:45:00;;;;;;;43.70;22.73;;;10.20;99.90;;;;;;5096979;28;20137;-52
2022/04/16 03:47:27;;;;;;;38.40;20.30;;;10.20;99.90;;;;;;5097065;28;20863;-52
2022/04/16 03:49:55;;;;;;;45.17;23.25;;;10.20;99.90;;;;;;5096883;28;20032;-52
2022/04/16 03:52:21;;;;;;;52.10;28.95;;;10.20;99.90;;;;;;5096861;28;20028;-52
2022/04/16 04:00:17;;;;;;;51.10;29.48;;;10.40;99.90;;;;;;5096437;28;20038;-52
2022/04/16 04:02:43;;;;;;;54.08;29.50;;;10.40;99.90;;;;;;5096472;28;20047;-52
2022/04/16 04:05:10;;;;;;;51.58;29.98;;;10.50;99.90;;;;;;5096517;28;20073;-52
2022/04/16 04:07:36;;;;;;;50.47;30.15;;;10.50;99.90;;;;;;5096562;28;20032;-52
2022/04/16 04:10:03;;;;;;;50.50;29.67;;;10.50;99.90;;;;;;5096590;28;20158;-52
2022/04/16 04:12:31;;;;;;;50.92;29.70;;;10.60;99.90;;;;;;5096344;28;20055;-52
2022/04/16 04:14:57;;;;;;;60.15;30.20;;;10.70;99.90;;;;;;5096280;28;20036;-52
2022/04/16 04:17:23;;;;;;;50.78;29.27;;;10.70;99.90;;;;;;5096152;28;20418;-52
2022/04/16 04:19:49;;;;;;;44.97;28.90;;;10.80;99.90;;;;;;5096135;28;20028;-52
2022/04/16 04:22:17;;;;;;;57.72;28.33;;;10.80;99.90;;;;;;5096202;28;20024;-52
2022/04/16 04:24:44;;;;;;;54.15;26.80;;;10.80;99.90;;;;;;5095981;28;20032;-52
2022/04/16 04:27:10;;;;;;;51.72;27.95;;;10.90;99.90;;;;;;5096390;28;20027;-52
2022/04/16 04:29:36;;;;;;;65.35;29.95;;;10.90;99.90;;;;;;5096184;28;20032;-52
2022/04/16 04:32:04;;;;;;;62.63;31.38;;;10.90;99.90;;;;;;5095866;28;20024;-52
2022/04/16 04:34:29;;;;;;;55.55;31.00;;;10.90;99.90;;;;;;5095876;28;20043;-52
2022/04/16 04:36:55;;;;;;;55.15;28.55;;;10.90;99.90;;;;;;5095814;28;20376;-52
2022/04/16 04:39:21;;;;;;;55.08;28.15;;;10.90;99.90;;;;;;5095702;28;20032;-52
2022/04/16 04:41:47;;;;;;;54.90;29.00;;;10.90;99.90;;;;;;5094850;28;20107;-52
2022/04/16 04:44:14;;;;;;;66.03;32.88;;;10.90;99.90;;;;;;5095699;28;20009;-52
2022/04/16 04:46:41;;;;;;;67.72;30.60;;;10.90;99.90;;;;;;5095585;28;20489;-52
2022/04/16 04:49:07;;;;;;;69.63;29.38;;;11.00;99.90;;;;;;5095747;28;20070;-52
2022/04/16 04:51:35;;;;;;;54.45;28.15;;;11.00;99.90;;;;;;5095826;28;20458;-52
2022/04/16 04:54:04;;;;;;;55.65;27.50;;;11.00;99.90;;;;;;5095485;28;20177;-52
2022/04/16 04:56:30;;;;;;;55.97;27.90;;;11.00;99.90;;;;;;5095740;28;20039;-52
2022/04/16 04:58:56;;;;;;;52.90;26.63;;;11.00;99.90;;;;;;5095250;28;20035;-53
2022/04/16 05:01:23;;;;;;;63.03;26.02;;;11.00;99.90;;;;;;5095217;28;20461;-52
2022/04/16 05:03:49;;;;;;;49.10;26.73;;;11.10;99.90;;;;;;5095750;28;20024;-52
2022/04/16 05:06:15;;;;;;;48.92;28.75;;;11.10;99.90;;;;;;5095819;28;20028;-52
2022/04/16 05:08:41;;;;;;;51.08;27.95;;;11.10;99.90;;;;;;5095161;28;20039;-52
2022/04/16 05:11:07;;;;;;;58.58;28.27;;;11.20;99.90;;;;;;5095341;28;20020;-52
2022/04/16 05:13:33;;;;;;;61.95;30.38;;;11.20;99.90;;;;;;5095129;28;20031;-52
2022/04/16 05:15:58;;;;;;;54.75;29.67;;;11.20;99.90;;;;;;5095273;28;20024;-52
2022/04/16 05:18:25;;;;;;;70.25;31.63;;;11.20;99.90;;;;;;5095047;28;20075;-52
2022/04/16 05:20:52;;;;;;;111.28;47.70;;;11.30;99.90;;;;;;5094981;28;20024;-52
2022/04/16 05:23:18;;;;;;;123.03;51.72;;;11.30;99.90;;;;;;5094841;28;20020;-52
2022/04/16 05:25:44;;;;;;;75.35;39.42;;;11.30;99.90;;;;;;5095005;28;20028;-52
2022/04/16 05:28:10;;;;;;;78.82;37.75;;;11.30;99.90;;;;;;5094925;28;20378;-52
2022/04/16 05:30:58;;;;;;;75.03;38.97;;;11.30;99.90;;;;;;5094947;28;20028;-52
2022/04/16 05:36:09;;;;;;;66.60;36.03;;;11.40;99.90;;;;;;5094775;28;20389;-52
2022/04/16 05:38:35;;;;;;;75.65;36.30;;;11.50;99.90;;;;;;5094684;28;20077;-52
2022/04/16 05:41:01;;;;;;;66.28;33.75;;;11.50;99.90;;;;;;5094755;28;20036;-52
2022/04/16 05:43:27;;;;;;;60.05;29.20;;;11.60;99.90;;;;;;5094645;28;20379;-52
2022/04/16 05:45:54;;;;;;;52.17;26.60;;;11.60;99.90;;;;;;5094756;28;20099;-52
2022/04/16 05:48:20;;;;;;;62.92;32.38;;;11.70;99.90;;;;;;5094647;28;20039;-52
2022/04/16 05:50:46;;;;;;;57.10;28.42;;;11.70;99.90;;;;;;5094563;28;20093;-52
2022/04/16 05:53:14;;;;;;;55.40;29.80;;;11.80;99.90;;;;;;5094338;28;20027;-52
2022/04/16 05:55:43;;;;;;;61.10;32.20;;;11.90;99.90;;;;;;5094592;28;20544;-52
2022/04/16 05:58:10;;;;;;;75.93;39.20;;;12.00;99.90;;;;;;5094631;28;20032;-52
2022/04/16 06:00:37;;;;;;;74.57;41.70;;;12.10;99.90;;;;;;5094329;28;20036;-52
2022/04/16 06:03:04;;;;;;;80.25;42.70;;;12.10;99.90;;;;;;5094630;28;20355;-52
2022/04/16 06:05:31;;;;;;;87.18;42.90;;;12.20;99.90;;;;;;5094448;28;20040;-52
2022/04/16 06:08:01;;;;;;;63.30;34.05;;;12.20;99.90;;;;;;5094513;28;20115;-52
2022/04/16 06:10:27;;;;;;;49.58;26.80;;;12.30;99.90;;;;;;5093251;28;20051;-52
2022/04/16 06:12:53;;;;;;;47.13;21.95;;;12.30;99.90;;;;;;5094179;28;20067;-52
2022/04/16 06:15:20;;;;;;;37.05;17.65;;;12.40;99.90;;;;;;5094390;28;20036;-52
2022/04/16 06:17:46;;;;;;;28.90;15.40;;;12.50;99.90;;;;;;5094235;28;20066;-52
2022/04/16 06:20:12;;;;;;;25.42;14.45;;;12.50;99.90;;;;;;5094076;28;20111;-52
2022/04/16 06:22:39;;;;;;;28.13;13.35;;;12.50;99.90;;;;;;5094443;28;20028;-52
2022/04/16 06:25:06;;;;;;;27.40;14.75;;;12.60;99.90;;;;;;5094249;28;20020;-52
2022/04/16 06:27:32;;;;;;;32.17;15.30;;;12.60;99.90;;;;;;5094374;28;20501;-52
2022/04/16 06:29:58;;;;;;;26.27;12.98;;;12.70;99.90;;;;;;5094269;28;20047;-52
2022/04/16 06:32:24;;;;;;;22.50;11.60;;;12.70;99.90;;;;;;5094218;28;20021;-52
2022/04/16 06:34:49;;;;;;;17.92;9.98;;;12.80;99.90;;;;;;5094115;28;20035;-52
2022/04/16 06:37:15;;;;;;;22.42;11.65;;;12.80;99.90;;;;;;5094421;28;20385;-52
2022/04/16 06:39:41;;;;;;;23.77;8.90;;;12.80;99.90;;;;;;5094102;28;20032;-52
2022/04/16 06:42:07;;;;;;;28.42;9.40;;;12.80;99.90;;;;;;5094163;28;20020;-52
2022/04/16 06:44:33;;;;;;;19.33;7.50;;;12.80;99.90;;;;;;5094153;28;20096;-52
2022/04/16 06:46:59;;;;;;;16.13;7.85;;;12.70;99.90;;;;;;5094021;28;20130;-52
2022/04/16 06:49:28;;;;;;;13.88;6.75;;;12.80;99.90;;;;;;5094229;28;20040;-52
2022/04/16 06:51:54;;;;;;;26.40;9.18;;;12.80;99.90;;;;;;5094161;28;20032;-52
2022/04/16 06:54:20;;;;;;;14.75;7.57;;;12.70;99.90;;;;;;5094004;28;20024;-52
2022/04/16 06:56:46;;;;;;;12.18;6.80;;;12.70;99.90;;;;;;5094324;28;20032;-52
2022/04/16 06:59:11;;;;;;;12.90;8.13;;;12.70;99.90;;;;;;5093761;28;20028;-52
2022/04/16 07:01:37;;;;;;;12.75;6.80;;;12.60;99.90;;;;;;5093966;28;20020;-53
2022/04/16 07:04:04;;;;;;;21.70;9.45;;;12.60;99.90;;;;;;5094473;28;20095;-53
2022/04/16 07:06:30;;;;;;;12.85;6.38;;;12.50;99.90;;;;;;5096706;28;20024;-53
2022/04/16 07:08:56;;;;;;;14.02;6.55;;;12.60;99.90;;;;;;5097895;28;20023;-53
2022/04/16 07:11:22;;;;;;;18.80;8.82;;;12.50;99.90;;;;;;5097380;28;20084;-52
2022/04/16 07:13:48;;;;;;;13.02;7.18;;;12.60;99.90;;;;;;5097505;28;20028;-53
2022/04/16 07:16:14;;;;;;;13.30;7.60;;;12.50;99.90;;;;;;5097322;28;20032;-53
2022/04/16 07:18:40;;;;;;;39.97;19.05;;;12.50;99.90;;;;;;5097710;28;20036;-53
2022/04/16 07:21:05;;;;;;;13.10;7.38;;;12.50;99.90;;;;;;5097526;28;20035;-53
2022/04/16 07:23:31;;;;;;;13.38;7.85;;;12.40;99.90;;;;;;5097222;28;20024;-53
2022/04/16 07:25:57;;;;;;;11.68;7.68;;;12.30;99.90;;;;;;5097349;28;20036;-53
2022/04/16 07:28:23;;;;;;;12.88;7.22;;;12.30;99.90;;;;;;5097339;28;20020;-53
2022/04/16 07:30:52;;;;;;;10.55;6.20;;;12.10;99.90;;;;;;5097230;28;20034;-53
2022/04/16 07:33:18;;;;;;;10.30;6.63;;;12.20;99.90;;;;;;5097224;28;20035;-52
2022/04/16 07:35:45;;;;;;;13.57;8.88;;;12.10;99.90;;;;;;5097011;28;20024;-53
2022/04/16 07:38:11;;;;;;;60.60;27.70;;;12.10;99.90;;;;;;5097018;28;20028;-53
2022/04/16 07:40:37;;;;;;;24.98;13.57;;;12.10;99.90;;;;;;5096875;28;20378;-52
2022/04/16 07:43:03;;;;;;;10.45;7.78;;;12.20;99.90;;;;;;5097111;28;20020;-52
2022/04/16 07:45:29;;;;;;;29.85;9.88;;;12.10;99.90;;;;;;5096938;28;20470;-52
2022/04/16 07:47:56;;;;;;;20.65;10.05;;;12.10;99.90;;;;;;5096836;28;20027;-53
2022/04/16 07:50:22;;;;;;;12.48;8.90;;;12.20;99.90;;;;;;5096906;28;20385;-53
2022/04/16 07:52:48;;;;;;;9.02;7.20;;;12.20;99.90;;;;;;5096814;28;20115;-53
2022/04/16 07:55:15;;;;;;;14.60;8.70;;;12.20;99.90;;;;;;5096789;28;20450;-53
2022/04/16 07:57:41;;;;;;;12.65;8.48;;;12.30;99.90;;;;;;5096700;28;20100;-53
2022/04/16 08:00:08;;;;;;;12.68;8.98;;;12.30;99.90;;;;;;5096729;28;20035;-53
2022/04/16 08:02:40;;;;;;;15.93;9.45;;;12.40;99.90;;;;;;5096771;28;20214;-53
2022/04/16 08:05:06;;;;;;;15.48;9.52;;;12.50;99.90;;;;;;5096521;28;20478;-53
2022/04/16 08:07:33;;;;;;;12.27;7.43;;;12.50;99.90;;;;;;5096534;28;20028;-53
2022/04/16 08:09:59;;;;;;;16.20;8.75;;;12.60;99.90;;;;;;5096444;28;20040;-53
2022/04/16 08:12:25;;;;;;;11.77;7.25;;;12.60;99.90;;;;;;5096365;28;20107;-53
2022/04/16 08:14:52;;;;;;;11.70;7.82;;;12.50;99.90;;;;;;5096353;28;20453;-53
2022/04/16 08:17:18;;;;;;;10.63;7.65;;;12.60;99.90;;;;;;5096172;28;20113;-53
2022/04/16 08:19:44;;;;;;;12.18;7.70;;;12.70;99.90;;;;;;5096217;28;20039;-53
2022/04/16 08:22:17;;;;;;;9.65;7.20;;;12.80;99.90;;;;;;5096267;28;20085;-53
2022/04/16 08:24:54;;;;;;;8.40;7.03;;;12.90;99.90;;;;;;5096053;28;20028;-53
2022/04/16 08:27:21;;;;;;;24.17;9.40;;;13.00;99.90;;;;;;5095994;28;20125;-53
2022/04/16 08:29:47;;;;;;;20.98;9.52;;;13.10;99.90;;;;;;5096108;28;20028;-53
2022/04/16 08:32:13;;;;;;;10.27;7.70;;;13.20;99.90;;;;;;5095996;28;20032;-53
2022/04/16 08:34:39;;;;;;;15.93;8.68;;;13.20;99.90;;;;;;5095894;28;20112;-53
2022/04/16 08:37:05;;;;;;;15.88;8.43;;;13.30;99.90;;;;;;5095948;28;20031;-53
2022/04/16 08:39:31;;;;;;;12.95;8.55;;;13.40;99.90;;;;;;5095743;28;20032;-53
2022/04/16 08:41:57;;;;;;;14.80;9.77;;;13.50;99.90;;;;;;5095695;28;20024;-53
2022/04/16 08:44:26;;;;;;;14.38;9.10;;;13.40;99.90;;;;;;5095852;28;20077;-53
2022/04/16 08:46:54;;;;;;;16.83;9.10;;;13.60;99.90;;;;;;5095847;28;20411;-53
2022/04/16 08:49:21;;;;;;;13.20;9.25;;;13.80;99.90;;;;;;5095705;28;20409;-53
2022/04/16 08:51:48;;;;;;;17.45;9.70;;;13.50;99.90;;;;;;5095691;28;20050;-53
2022/04/16 08:54:14;;;;;;;19.52;12.38;;;13.40;99.90;;;;;;5095663;28;20020;-53
2022/04/16 08:56:40;;;;;;;19.88;11.80;;;13.30;99.90;;;;;;5095463;28;20055;-53
2022/04/16 08:59:06;;;;;;;21.65;11.98;;;13.40;99.90;;;;;;5095499;28;20561;-53
2022/04/16 09:01:34;;;;;;;24.95;12.35;;;13.60;99.90;;;;;;5095663;28;20058;-53
2022/04/16 09:04:00;;;;;;;18.45;11.52;;;13.50;99.90;;;;;;5095338;28;20142;-53
2022/04/16 09:06:27;;;;;;;16.60;10.30;;;13.30;99.90;;;;;;5095455;28;20449;-53
2022/04/16 09:08:54;;;;;;;18.27;10.27;;;13.20;99.90;;;;;;5095305;28;20020;-53
2022/04/16 09:11:21;;;;;;;18.23;10.65;;;13.30;99.90;;;;;;5095129;28;20389;-53
2022/04/16 09:13:50;;;;;;;17.13;10.25;;;13.30;99.90;;;;;;5095185;28;20389;-53
2022/04/16 09:16:17;;;;;;;18.15;11.27;;;13.50;99.90;;;;;;5094945;28;20082;-53
2022/04/16 09:18:51;;;;;;;16.48;10.52;;;13.70;99.90;;;;;;5094982;28;20028;-53
2022/04/16 09:21:18;;;;;;;18.42;10.88;;;13.90;99.90;;;;;;5095253;28;20024;-53
2022/04/16 09:23:50;;;;;;;14.18;10.65;;;14.10;99.90;;;;;;5094701;28;20075;-53
2022/04/16 09:26:34;;;;;;;14.20;10.05;;;14.30;99.90;;;;;;5094778;28;20047;-53
2022/04/16 09:29:08;;;;;;;18.10;10.52;;;14.50;99.90;;;;;;5094336;28;20097;-53
2022/04/16 09:31:38;;;;;;;18.70;12.82;;;14.30;99.90;;;;;;5094785;28;20032;-53
2022/04/16 09:34:06;;;;;;;23.27;11.52;;;14.10;99.90;;;;;;5095170;28;20027;-53
2022/04/16 09:36:36;;;;;;;17.88;11.73;;;14.20;99.90;;;;;;5094930;28;20058;-53
2022/04/16 09:39:10;;;;;;;19.02;11.35;;;14.30;99.90;;;;;;5094787;28;21904;-53
2022/04/16 09:41:41;;;;;;;20.63;12.93;;;14.30;99.90;;;;;;5094985;28;20028;-53
2022/04/16 09:44:20;;;;;;;;;;;14.20;99.90;;;;;;5095550;28;20428;-53
2022/04/16 09:46:47;;;;;;;18.42;10.70;;;14.20;99.90;;;;;;5094638;28;19912;-53
2022/04/16 09:49:14;;;;;;;17.38;11.30;;;14.30;99.90;;;;;;5094567;28;20107;-53
2022/04/16 09:51:42;;;;;;;19.27;10.40;;;14.40;99.90;;;;;;5094763;28;20028;-53
2022/04/16 09:54:09;;;;;;;15.52;9.90;;;14.40;99.90;;;;;;5094389;28;20390;-53
2022/04/16 09:56:37;;;;;;;16.02;9.98;;;14.60;99.90;;;;;;5094607;28;20039;-53
2022/04/16 09:59:08;;;;;;;15.57;9.38;;;14.80;99.90;;;;;;5094306;28;20028;-53
2022/04/16 10:01:38;;;;;;;23.80;9.43;;;15.00;99.90;;;;;;5094524;28;20032;-53
2022/04/16 10:04:06;;;;;;;16.13;9.02;;;15.00;99.90;;;;;;5094718;28;20025;-53
2022/04/16 10:06:33;;;;;;;19.90;9.43;;;14.90;99.90;;;;;;5094294;28;20130;-53
2022/04/16 10:09:13;;;;;;;36.47;16.35;;;15.20;99.90;;;;;;5094580;28;20016;-53
2022/04/16 10:14:49;;;;;;;7.95;5.57;;;15.50;97.40;;;;;;5094155;28;20465;-53
2022/04/16 10:17:15;;;;;;;12.15;6.07;;;15.40;96.70;;;;;;5094360;28;20039;-53
2022/04/16 10:19:48;;;;;;;13.65;6.45;;;15.40;96.00;;;;;;5094345;28;20549;-53
2022/04/16 10:22:25;;;;;;;10.63;6.15;;;15.60;96.60;;;;;;5094303;28;20040;-53
2022/04/16 10:24:58;;;;;;;15.45;6.80;;;15.90;97.10;;;;;;5094304;28;20385;-53
2022/04/16 10:27:28;;;;;;;6.05;4.35;;;16.10;97.00;;;;;;5094221;28;20024;-53
2022/04/16 10:30:09;;;;;;;10.00;5.40;;;16.40;92.90;;;;;;5094341;28;20056;-53
2022/04/16 10:32:43;;;;;;;15.48;5.15;;;16.40;92.70;;;;;;5094455;28;20028;-53
2022/04/16 10:35:16;;;;;;;16.63;6.38;;;16.50;92.70;;;;;;5094096;28;20081;-53
2022/04/16 10:37:44;;;;;;;15.32;5.72;;;16.60;92.30;;;;;;5094213;28;20653;-53
2022/04/16 10:40:22;;;;;;;10.07;4.72;;;16.50;93.50;;;;;;5095158;28;20117;-53
2022/04/16 10:42:50;;;;;;;9.13;4.40;;;16.50;90.60;;;;;;5098123;28;20028;-53
2022/04/16 10:45:16;;;;;;;15.80;6.50;;;16.40;90.10;;;;;;5098172;28;20023;-53
2022/04/16 10:47:43;;;;;;;18.42;6.45;;;16.20;86.50;;;;;;5097963;28;20032;-53
2022/04/16 10:50:19;;;;;;;12.50;5.32;;;16.00;91.60;;;;;;5097932;28;20055;-53
2022/04/16 10:52:56;;;;;;;25.00;7.30;;;16.00;92.70;;;;;;5098070;28;20032;-53
2022/04/16 10:55:32;;;;;;;24.10;8.95;;;15.90;93.20;;;;;;5097778;28;20035;-53
2022/04/16 10:57:59;;;;;;;13.32;4.85;;;15.90;94.70;;;;;;5097785;28;20087;-53
2022/04/16 11:00:45;;;;;;;9.65;4.82;;;15.80;93.60;;;;;;5097714;28;20024;-53
2022/04/16 11:03:17;;;;;;;10.00;5.35;;;15.80;94.10;;;;;;5097672;28;20111;-53
2022/04/16 11:05:44;;;;;;;9.95;4.90;;;15.70;94.80;;;;;;5097951;28;20020;-53
2022/04/16 11:08:17;;;;;;;15.18;5.85;;;15.70;93.30;;;;;;5097826;28;20028;-53
2022/04/16 11:10:43;;;;;;;13.88;4.50;;;15.60;94.70;;;;;;5097566;28;20039;-53
2022/04/16 11:13:12;;;;;;;5.00;4.00;;;15.80;95.70;;;;;;5097432;28;20406;-53
2022/04/16 11:15:40;;;;;;;9.38;4.53;;;15.70;92.30;;;;;;5097647;28;20028;-53
2022/04/16 11:18:06;;;;;;;6.82;4.35;;;15.70;96.20;;;;;;5097330;28;20048;-53
2022/04/16 11:20:32;;;;;;;11.48;5.60;;;15.80;92.10;;;;;;5097562;28;20050;-53
2022/04/16 11:22:58;;;;;;;7.55;4.10;;;16.00;94.20;;;;;;5097362;28;20465;-53
2022/04/16 11:25:25;;;;;;;4.95;3.72;;;16.20;90.00;;;;;;5097405;28;20466;-53
2022/04/16 11:36:11;;;;;;;13.40;7.15;;;17.60;84.80;;;;;;5097026;28;20538;-54
2022/04/16 11:38:39;;;;;;;9.73;3.47;;;17.90;73.20;;;;;;5097027;28;20028;-53
2022/04/16 11:41:10;;;;;;;5.47;2.85;;;17.70;75.80;;;;;;5097429;28;20028;-53
2022/04/16 11:43:45;;;;;;;9.20;3.50;;;17.70;77.50;;;;;;5097224;28;20024;-53
2022/04/16 11:46:13;;;;;;;8.25;3.22;;;17.60;74.60;;;;;;5096782;28;20032;-53
2022/04/16 11:48:46;;;;;;;3.75;2.50;;;17.60;77.80;;;;;;5096736;28;20047;-53
2022/04/16 11:51:14;;;;;;;12.63;5.53;;;17.70;75.30;;;;;;5096504;28;20028;-53
2022/04/16 11:53:51;;;;;;;7.75;2.95;;;17.90;72.70;;;;;;5096854;28;20026;-53
2022/04/16 11:56:26;;;;;;;10.10;3.00;;;18.10;70.60;;;;;;5096933;28;20028;-53
2022/04/16 11:58:53;;;;;;;6.28;3.10;;;18.10;65.40;;;;;;5096576;28;20085;-53
2022/04/16 12:01:20;;;;;;;6.80;2.92;;;17.90;61.70;;;;;;5096415;28;20020;-54
2022/04/16 12:03:48;;;;;;;4.07;2.38;;;18.40;66.80;;;;;;5096767;28;20461;-54
2022/04/16 12:06:15;;;;;;;4.13;2.33;;;18.90;57.40;;;;;;5096341;28;20032;-54
2022/04/16 12:08:46;;;;;;;4.88;2.20;;;19.20;53.70;;;;;;5096434;28;20470;-53
2022/04/16 12:11:15;;;;;;;3.95;2.17;;;18.80;55.80;;;;;;5096612;28;20032;-53
2022/04/16 12:13:42;;;;;;;4.05;1.48;;;18.70;52.20;;;;;;5096449;28;20028;-53
2022/04/16 12:16:15;;;;;;;9.32;3.60;;;18.60;48.50;;;;;;5096395;28;20359;-53
2022/04/16 12:18:46;;;;;;;3.97;1.77;;;18.70;54.20;;;;;;5096318;28;20044;-53
2022/04/16 12:21:17;;;;;;;4.75;1.60;;;18.70;49.90;;;;;;5096143;28;20039;-53
2022/04/16 12:23:44;;;;;;;6.32;2.25;;;18.40;52.30;;;;;;5096204;28;20035;-53
2022/04/16 12:26:16;;;;;;;4.60;1.85;;;18.60;51.10;;;;;;5096212;28;20048;-53
2022/04/16 12:28:47;;;;;;;6.28;1.88;;;18.90;50.70;;;;;;5095988;28;20050;-53
2022/04/16 12:31:23;;;;;;;7.20;2.30;;;19.40;51.40;;;;;;5095978;28;20046;-53
2022/04/16 12:33:49;;;;;;;7.68;2.20;;;19.60;50.80;;;;;;5096255;28;20024;-53
2022/04/16 12:36:15;;;;;;;3.28;1.73;;;19.20;49.40;;;;;;5095843;28;20028;-54
2022/04/16 12:38:41;;;;;;;3.70;1.85;;;19.30;49.70;;;;;;5095927;28;20036;-53
2022/04/16 12:41:09;;;;;;;8.73;2.45;;;19.30;51.40;;;;;;5096049;28;20398;-53
2022/04/16 12:43:39;;;;;;;11.48;1.85;;;19.20;49.40;;;;;;5095717;28;20100;-53
2022/04/16 12:46:05;;;;;;;3.33;1.20;;;19.50;48.50;;;;;;5095950;28;20020;-53
2022/04/16 12:48:31;;;;;;;4.47;1.38;;;19.50;46.40;;;;;;5095721;28;20027;-54
2022/04/16 12:50:57;;;;;;;2.60;1.67;;;20.20;49.60;;;;;;5095617;28;20546;-54
2022/04/16 12:53:24;;;;;;;5.03;2.17;;;20.30;45.40;;;;;;5095842;28;20490;-53
2022/04/16 12:55:50;;;;;;;3.40;2.05;;;20.50;47.90;;;;;;5095678;28;20031;-54
2022/04/16 12:58:17;;;;;;;13.45;3.38;;;20.20;45.10;;;;;;5077336;28;20032;-54
2022/04/16 13:00:46;;;;;;;1.10;1.00;;;20.20;46.40;;;;;;5095546;28;20117;-54